Time;durP1;ratioP1;P1;durP2;ratioP2;P2;SDS_P1;SDS_P2;PMS_P1;PMS_P2;Temp;Humidity;BMP_temperature;BMP_pressure;BME280_temperature;BME280_humidity;BME280_pressure;Samples;Min_cycle;Max_cycle;Signal;HPM_P1;HPM_P2
2021/05/30 00:00:11;;;;;;;18.88;16.10;;;;;;;19.33;64.54;102793.44;5081989;28;20662;-61
2021/05/30 00:02:36;;;;;;;18.80;16.23;;;;;;;19.35;64.49;102790.63;5073539;28;20032;-61
2021/05/30 00:05:03;;;;;;;20.20;16.15;;;;;;;19.33;64.56;102789.94;5080025;28;20035;-61
2021/05/30 00:07:29;;;;;;;18.55;15.32;;;;;;;19.34;64.41;102786.28;5074549;28;20475;-61
2021/05/30 00:09:54;;;;;;;19.08;15.20;;;;;;;19.34;64.66;102784.47;5053387;28;20043;-61
2021/05/30 00:12:21;;;;;;;18.35;15.25;;;;;;;19.33;64.65;102788.13;5074069;28;20033;-60
2021/05/30 00:14:47;;;;;;;18.77;14.43;;;;;;;19.33;64.71;102782.78;5072158;28;20044;-61
2021/05/30 00:17:14;;;;;;;17.50;14.73;;;;;;;19.33;64.19;102784.63;5072039;28;20043;-62
2021/05/30 00:19:39;;;;;;;16.45;14.38;;;;;;;19.33;64.29;102782.78;5072990;28;20040;-61
2021/05/30 00:22:05;;;;;;;18.10;14.93;;;;;;;19.33;64.27;102784.63;5071595;28;20491;-61
2021/05/30 00:24:30;;;;;;;17.63;14.80;;;;;;;19.32;64.27;102781.13;5073465;28;20065;-61
2021/05/30 00:26:55;;;;;;;16.20;14.23;;;;;;;19.33;64.30;102781.94;5078138;28;20093;-61
2021/05/30 00:29:21;;;;;;;17.02;13.73;;;;;;;19.32;64.33;102778.44;5087596;28;20745;-61
2021/05/30 00:31:46;;;;;;;17.67;13.68;;;;;;;19.33;64.28;102781.94;5088715;28;20709;-61
2021/05/30 00:34:12;;;;;;;16.10;14.00;;;;;;;19.33;64.08;102780.13;5088110;28;20074;-61
2021/05/30 00:36:37;;;;;;;15.82;13.85;;;;;;;19.32;64.08;102783.78;5083310;28;20083;-61
2021/05/30 00:39:04;;;;;;;16.52;13.35;;;;;;;19.33;64.56;102779.28;5066032;28;20102;-62
2021/05/30 00:41:29;;;;;;;14.45;12.93;;;;;;;19.32;64.19;102775.78;5084471;28;20039;-61
2021/05/30 00:43:55;;;;;;;15.57;12.63;;;;;;;19.33;64.18;102776.63;5083826;28;20714;-62
2021/05/30 00:46:21;;;;;;;14.85;13.25;;;;;;;19.32;64.27;102778.44;5077616;28;20048;-61
2021/05/30 00:48:48;;;;;;;14.85;12.75;;;;;;;19.32;64.11;102781.13;5073400;28;20036;-61
2021/05/30 00:51:14;;;;;;;14.15;12.45;;;;;;;19.32;64.32;102781.13;5085855;28;20036;-60
2021/05/30 00:53:42;;;;;;;15.00;12.38;;;;;;;19.34;64.31;102783.63;5084577;28;20029;-60
2021/05/30 00:56:15;;;;;;;13.63;11.68;;;;;;;19.33;64.42;102776.63;5075451;28;20035;-60
2021/05/30 00:58:41;;;;;;;15.18;12.63;;;;;;;19.33;64.19;102776.63;5072021;28;20121;-61
2021/05/30 01:01:08;;;;;;;14.10;11.90;;;;;;;19.33;64.30;102776.63;5067400;28;20484;-61
2021/05/30 01:03:37;;;;;;;13.57;11.77;;;;;;;19.31;64.03;102774.13;5083835;22;20064;-58
2021/05/30 01:06:04;;;;;;;14.38;12.02;;;;;;;19.33;64.31;102768.66;5061278;28;20049;-59
2021/05/30 01:08:31;;;;;;;13.13;11.07;;;;;;;19.32;64.47;102775.78;5058926;28;20067;-58
2021/05/30 01:11:00;;;;;;;13.52;11.23;;;;;;;19.32;64.07;102775.78;5066198;28;20033;-59
2021/05/30 01:13:27;;;;;;;12.15;10.85;;;;;;;19.33;64.27;102771.31;5061811;28;20045;-59
2021/05/30 01:15:53;;;;;;;13.23;11.07;;;;;;;19.33;64.40;102766.81;5064646;28;20025;-57
2021/05/30 01:18:22;;;;;;;12.25;10.88;;;;;;;19.33;64.12;102768.66;5068176;28;20024;-58
2021/05/30 01:20:49;;;;;;;12.48;10.55;;;;;;;19.32;64.00;102772.28;5065339;28;20039;-58
2021/05/30 01:23:16;;;;;;;13.23;10.40;;;;;;;19.33;64.36;102774.81;5058111;28;20032;-58
2021/05/30 01:25:42;;;;;;;12.02;10.65;;;;;;;19.33;64.15;102776.63;5059499;28;20484;-61
2021/05/30 01:28:08;;;;;;;11.88;9.68;;;;;;;19.32;64.28;102770.47;5033652;28;20032;-58
2021/05/30 01:30:35;;;;;;;11.75;9.98;;;;;;;19.33;64.38;102773.97;5052221;28;20060;-58
2021/05/30 01:33:01;;;;;;;12.20;9.85;;;;;;;19.33;63.94;102771.31;5051865;28;20032;-57
2021/05/30 01:35:26;;;;;;;11.23;9.55;;;;;;;19.32;64.31;102769.63;5043205;28;20380;-59
2021/05/30 01:37:52;;;;;;;11.60;9.75;;;;;;;19.33;64.12;102773.97;5064272;28;20120;-58
2021/05/30 01:40:22;;;;;;;12.05;9.32;;;;;;;19.31;64.28;102770.63;5053362;28;20116;-57
2021/05/30 01:42:48;;;;;;;11.10;9.38;;;;;;;19.31;64.24;102771.47;5064750;28;20036;-58
2021/05/30 01:45:16;;;;;;;12.15;9.93;;;;;;;19.31;64.12;102768.81;5066776;28;20513;-57
2021/05/30 01:47:43;;;;;;;10.35;8.93;;;;;;;19.32;64.04;102764.31;5059794;28;20040;-57
2021/05/30 01:50:14;;;;;;;10.75;8.77;;;;;;;19.30;64.01;102767.13;5055911;28;20437;-58
2021/05/30 01:52:41;;;;;;;10.82;8.77;;;;;;;19.32;64.20;102773.13;5061983;28;20035;-58
2021/05/30 01:55:09;;;;;;;10.60;9.13;;;;;;;19.32;64.31;102774.97;5062547;28;20041;-58
2021/05/30 01:57:44;;;;;;;10.25;8.73;;;;;;;19.31;63.99;102767.97;5068140;28;20097;-58
2021/05/30 02:00:11;;;;;;;9.13;8.20;;;;;;;19.33;64.18;102771.31;5059398;28;20029;-58
2021/05/30 02:02:37;;;;;;;10.30;8.65;;;;;;;19.32;64.15;102772.28;5050854;28;20059;-58
2021/05/30 02:05:03;;;;;;;9.82;8.15;;;;;;;19.32;64.08;102769.63;5067756;28;20044;-58
2021/05/30 02:07:29;;;;;;;10.73;8.30;;;;;;;19.32;64.04;102769.63;5066914;28;20591;-58
2021/05/30 02:09:56;;;;;;;10.65;8.23;;;;;;;19.32;63.93;102774.97;5068778;28;20032;-58
2021/05/30 02:12:22;;;;;;;9.20;8.20;;;;;;;19.32;64.10;102769.63;5063579;28;20037;-59
2021/05/30 02:14:47;;;;;;;8.88;7.88;;;;;;;19.32;64.37;102777.63;5066193;28;20040;-58
2021/05/30 02:17:13;;;;;;;10.02;8.40;;;;;;;19.31;64.41;102767.97;5067383;28;20442;-57
2021/05/30 02:19:38;;;;;;;9.20;7.93;;;;;;;19.31;64.05;102773.28;5067506;28;20131;-58
2021/05/30 02:22:04;;;;;;;9.07;7.40;;;;;;;19.31;63.80;102779.44;5060855;28;20452;-58
2021/05/30 02:24:30;;;;;;;9.63;7.28;;;;;;;19.32;63.84;102777.63;5064484;28;20039;-58
2021/05/30 02:26:55;;;;;;;8.10;6.97;;;;;;;19.31;63.98;102774.13;5054548;28;20453;-62
2021/05/30 02:29:33;;;;;;;9.20;7.70;;;;;;;19.30;64.27;102763.63;5061326;28;20424;-58
2021/05/30 02:31:59;;;;;;;8.82;7.22;;;;;;;19.32;64.14;102774.97;5063805;28;20033;-58
2021/05/30 02:34:24;;;;;;;8.25;7.15;;;;;;;19.30;63.97;102767.13;5067893;28;20039;-57
2021/05/30 02:36:49;;;;;;;8.68;7.30;;;;;;;19.31;64.24;102770.63;5069933;28;20028;-57
2021/05/30 02:39:15;;;;;;;8.80;7.13;;;;;;;19.30;63.94;102764.47;5067317;28;20040;-58
2021/05/30 02:41:40;;;;;;;8.43;7.00;;;;;;;19.30;63.93;102767.13;5070419;28;20040;-58
2021/05/30 02:44:06;;;;;;;8.10;6.75;;;;;;;19.31;64.13;102776.78;5053376;28;20045;-58
2021/05/30 02:46:32;;;;;;;9.52;6.95;;;;;;;19.30;64.16;102772.44;5068690;28;20078;-59
2021/05/30 02:48:58;;;;;;;8.40;6.50;;;;;;;19.31;63.93;102770.63;5066749;28;20072;-58
2021/05/30 02:51:23;;;;;;;7.75;6.50;;;;;;;19.31;64.21;102767.97;5061507;28;20025;-59
2021/05/30 02:53:48;;;;;;;8.27;6.38;;;;;;;19.32;64.10;102769.63;5059147;28;20028;-59
2021/05/30 02:56:14;;;;;;;7.13;6.22;;;;;;;19.32;64.10;102769.63;5037010;28;20043;-58
2021/05/30 02:58:39;;;;;;;7.38;6.28;;;;;;;19.31;64.01;102762.63;5058082;28;20579;-60
2021/05/30 03:01:05;;;;;;;7.88;6.47;;;;;;;19.30;64.10;102769.78;5063990;28;20029;-58
2021/05/30 03:03:30;;;;;;;7.35;5.88;;;;;;;19.31;63.82;102757.31;5069137;28;20048;-58
2021/05/30 03:05:56;;;;;;;6.43;5.60;;;;;;;19.31;64.15;102755.50;5061323;28;20036;-58
2021/05/30 03:08:21;;;;;;;7.85;5.75;;;;;;;19.31;64.25;102757.31;5062860;28;20037;-58
2021/05/30 03:10:46;;;;;;;7.88;6.15;;;;;;;19.31;63.80;102765.31;5068236;28;20033;-58
2021/05/30 03:13:12;;;;;;;6.63;5.68;;;;;;;19.30;64.07;102753.81;5066984;28;20036;-60
2021/05/30 03:15:38;;;;;;;6.05;5.13;;;;;;;19.32;63.97;102753.66;5038356;28;20535;-58
2021/05/30 03:18:05;;;;;;;7.03;5.50;;;;;;;19.32;64.28;102751.00;5062847;28;20402;-58
2021/05/30 03:20:31;;;;;;;6.28;5.53;;;;;;;19.31;64.08;102750.16;5061851;28;20467;-59
2021/05/30 03:22:56;;;;;;;6.80;5.63;;;;;;;19.31;64.01;102746.66;5060612;28;20021;-59
2021/05/30 03:25:22;;;;;;;7.05;5.63;;;;;;;19.31;64.22;102744.84;5067514;28;20043;-59
2021/05/30 03:27:49;;;;;;;6.85;5.43;;;;;;;19.31;64.15;102741.34;5068720;28;20039;-59
2021/05/30 03:30:15;;;;;;;7.47;5.45;;;;;;;19.32;63.88;102737.69;5066603;28;20055;-59
2021/05/30 03:32:41;;;;;;;6.32;5.40;;;;;;;19.30;63.84;102732.53;5068136;28;20082;-58
2021/05/30 03:35:07;;;;;;;6.32;5.10;;;;;;;19.32;63.72;102740.38;5067354;28;20032;-58
2021/05/30 03:37:32;;;;;;;8.10;5.65;;;;;;;19.31;63.95;102741.34;5067045;28;20446;-58
2021/05/30 03:40:02;;;;;;;5.15;4.65;;;;;;;19.30;63.81;102739.69;5068521;28;20044;-58
2021/05/30 03:42:29;;;;;;;5.95;4.53;;;;;;;19.31;63.65;102742.19;5066798;28;20708;-60
2021/05/30 03:44:57;;;;;;;5.70;4.47;;;;;;;19.31;63.99;102736.03;5068525;28;20086;-59
2021/05/30 03:47:23;;;;;;;7.47;4.55;;;;;;;19.30;63.74;102727.22;5067950;28;20159;-59
2021/05/30 03:49:48;;;;;;;5.97;4.80;;;;;;;19.31;63.84;102733.38;5058032;28;20432;-59
2021/05/30 03:52:14;;;;;;;6.28;4.82;;;;;;;19.30;64.09;102729.88;5061251;28;20547;-58
2021/05/30 03:54:39;;;;;;;5.75;4.55;;;;;;;19.29;63.96;102725.53;5060182;28;20025;-59
2021/05/30 03:57:05;;;;;;;8.20;4.45;;;;;;;19.30;63.73;102726.38;5055790;28;20456;-58
2021/05/30 03:59:30;;;;;;;5.10;4.35;;;;;;;19.30;63.68;102732.53;5036845;28;20036;-58
2021/05/30 04:01:56;;;;;;;5.45;4.28;;;;;;;19.30;63.94;102734.34;5061644;28;20064;-58
2021/05/30 04:04:21;;;;;;;5.40;4.35;;;;;;;19.29;63.72;102730.03;5068155;28;20048;-58
2021/05/30 04:06:47;;;;;;;6.32;4.70;;;;;;;19.30;63.78;102731.69;5064551;28;20100;-59
2021/05/30 04:09:12;;;;;;;5.47;4.20;;;;;;;19.29;63.95;102728.19;5063352;28;20037;-59
2021/05/30 04:11:38;;;;;;;5.45;4.22;;;;;;;19.29;63.90;102728.19;5056279;28;20520;-58
2021/05/30 04:14:03;;;;;;;5.65;4.18;;;;;;;19.29;64.07;102728.19;5063695;28;20032;-60
2021/05/30 04:16:29;;;;;;;4.60;3.78;;;;;;;19.29;63.51;102722.88;5052625;28;20503;-59
2021/05/30 04:18:54;;;;;;;5.43;4.20;;;;;;;19.29;63.85;102727.34;5058360;28;20061;-59
2021/05/30 04:21:20;;;;;;;5.10;4.22;;;;;;;19.30;63.87;102729.03;5064352;28;20056;-59
2021/05/30 04:23:45;;;;;;;5.15;4.25;;;;;;;19.29;63.58;102722.88;5063098;28;20028;-59
2021/05/30 04:26:11;;;;;;;4.28;3.75;;;;;;;19.29;63.78;102722.03;5056062;28;20085;-58
2021/05/30 04:28:36;;;;;;;4.95;3.85;;;;;;;19.30;63.75;102729.03;5060210;28;20037;-59
2021/05/30 04:31:02;;;;;;;4.68;3.38;;;;;;;19.29;63.69;102722.03;5047813;28;20047;-58
2021/05/30 04:33:28;;;;;;;5.47;3.92;;;;;;;19.29;63.84;102728.19;5060361;28;20135;-61
2021/05/30 04:35:53;;;;;;;4.95;3.58;;;;;;;19.29;63.94;102727.34;5067423;28;20040;-58
2021/05/30 04:38:19;;;;;;;4.60;3.67;;;;;;;19.28;63.68;102731.00;5067052;28;20093;-59
2021/05/30 04:40:45;;;;;;;5.40;3.67;;;;;;;19.29;63.52;102727.34;5051928;28;20025;-58
2021/05/30 04:43:11;;;;;;;5.38;3.67;;;;;;;19.28;63.59;102723.88;5066831;28;20432;-58
2021/05/30 04:45:37;;;;;;;4.93;3.45;;;;;;;19.27;63.90;102724.84;5065387;28;20120;-60
2021/05/30 04:48:02;;;;;;;5.38;3.63;;;;;;;19.27;63.48;102724.84;5068050;28;20068;-59
2021/05/30 04:50:28;;;;;;;4.47;3.40;;;;;;;19.28;63.61;102723.03;5066053;28;20441;-62
2021/05/30 04:52:54;;;;;;;4.13;3.20;;;;;;;19.28;63.64;102718.53;5060562;28;20106;-59
2021/05/30 04:55:19;;;;;;;4.22;3.38;;;;;;;19.28;63.64;102718.53;5046181;28;20041;-59
2021/05/30 04:57:45;;;;;;;3.90;3.05;;;;;;;19.27;63.72;102719.53;5057157;28;20029;-59
2021/05/30 05:00:13;;;;;;;4.18;3.10;;;;;;;19.28;63.83;102718.53;5019791;28;20037;-58
2021/05/30 05:02:39;;;;;;;4.68;3.38;;;;;;;19.28;63.88;102713.22;5066365;28;20033;-59
2021/05/30 05:05:06;;;;;;;4.53;3.42;;;;;;;19.28;63.46;102715.03;5065016;28;20040;-59
2021/05/30 05:07:31;;;;;;;4.35;3.40;;;;;;;19.28;63.42;102709.72;5067714;28;20051;-59
2021/05/30 05:09:57;;;;;;;4.05;3.15;;;;;;;19.29;63.41;102714.06;5066957;28;20182;-59
2021/05/30 05:12:23;;;;;;;4.57;3.45;;;;;;;19.28;63.39;102707.91;5063464;28;20033;-59
2021/05/30 05:14:48;;;;;;;4.18;2.95;;;;;;;19.28;63.39;102709.72;5056713;28;20390;-59
2021/05/30 05:17:14;;;;;;;3.97;3.05;;;;;;;19.29;63.80;102711.41;5064283;28;20031;-59
2021/05/30 05:19:40;;;;;;;3.40;2.70;;;;;;;19.28;63.58;102710.56;5038419;28;20563;-59
2021/05/30 05:22:06;;;;;;;4.75;3.33;;;;;;;19.28;63.53;102709.72;5053546;28;20120;-59
2021/05/30 05:24:31;;;;;;;4.15;2.95;;;;;;;19.28;63.37;102702.56;5065447;28;20125;-58
2021/05/30 05:26:57;;;;;;;3.88;3.05;;;;;;;19.28;63.44;102704.41;5066492;28;20071;-59
2021/05/30 05:29:22;;;;;;;4.78;3.13;;;;;;;19.29;63.74;102703.41;5057958;28;20420;-60
2021/05/30 05:31:48;;;;;;;4.13;2.85;;;;;;;19.29;63.59;102704.25;5047333;28;20520;-59
2021/05/30 05:34:13;;;;;;;3.33;2.60;;;;;;;19.29;63.80;102701.59;5058548;28;20037;-60
2021/05/30 05:36:39;;;;;;;3.72;2.65;;;;;;;19.30;63.27;102699.75;5066629;28;20082;-59
2021/05/30 05:39:04;;;;;;;4.43;2.58;;;;;;;19.29;63.71;102690.09;5067131;28;20024;-59
2021/05/30 05:41:31;;;;;;;3.30;2.53;;;;;;;19.29;63.34;102696.25;5066414;28;20071;-59
2021/05/30 05:43:56;;;;;;;3.83;2.70;;;;;;;19.29;63.41;102685.63;5064990;28;20163;-59
2021/05/30 05:46:22;;;;;;;3.20;2.50;;;;;;;19.29;63.63;102692.78;5066879;28;20067;-59
2021/05/30 05:48:48;;;;;;;3.70;2.60;;;;;;;19.29;63.56;102690.94;5065647;28;20037;-59
2021/05/30 05:51:13;;;;;;;3.88;2.70;;;;;;;19.30;63.16;102686.47;5066975;28;20036;-59
2021/05/30 05:53:39;;;;;;;3.70;2.55;;;;;;;19.30;63.45;102683.78;5067298;28;20404;-59
2021/05/30 05:56:05;;;;;;;3.28;2.50;;;;;;;19.30;63.22;102683.78;5049085;28;20039;-60
2021/05/30 05:58:30;;;;;;;3.70;2.72;;;;;;;19.29;63.43;102685.63;5052653;28;20029;-59
2021/05/30 06:00:56;;;;;;;4.05;2.42;;;;;;;19.30;63.35;102681.13;5053967;28;20032;-58
2021/05/30 06:03:21;;;;;;;3.40;2.50;;;;;;;19.30;63.46;102681.13;5066452;28;20055;-61
2021/05/30 06:05:47;;;;;;;3.47;2.45;;;;;;;19.29;63.25;102679.47;5059193;28;20033;-59
2021/05/30 06:08:12;;;;;;;3.53;2.65;;;;;;;19.29;63.74;102674.97;5060388;28;20445;-59
2021/05/30 06:10:38;;;;;;;3.42;2.53;;;;;;;19.30;63.47;102681.13;5062334;28;20090;-59
2021/05/30 06:13:11;;;;;;;3.17;2.30;;;;;;;19.30;63.26;102681.13;5062464;28;20036;-58
2021/05/30 06:15:43;;;;;;;3.33;2.38;;;;;;;19.29;63.28;102679.47;5056747;28;20024;-59
2021/05/30 06:18:11;;;;;;;2.80;2.03;;;;;;;19.30;63.20;102679.31;5059789;28;20152;-59
2021/05/30 06:20:37;;;;;;;3.50;2.28;;;;;;;19.30;63.46;102679.31;5054340;28;20029;-59
2021/05/30 06:23:03;;;;;;;3.30;2.25;;;;;;;19.30;63.38;102681.13;5069157;28;20047;-59
2021/05/30 06:25:29;;;;;;;2.88;2.13;;;;;;;19.31;63.15;102674.81;5062685;28;20429;-59
2021/05/30 06:27:56;;;;;;;4.25;2.22;;;;;;;19.30;63.28;102676.66;5058944;28;20025;-59
2021/05/30 06:30:27;;;;;;;3.53;2.20;;;;;;;19.31;63.09;102672.16;5066934;28;20125;-59
2021/05/30 06:32:53;;;;;;;3.25;2.30;;;;;;;19.31;63.24;102670.34;5060021;28;20060;-59
2021/05/30 06:35:19;;;;;;;3.15;2.03;;;;;;;19.31;63.41;102673.00;5069541;28;20071;-59
2021/05/30 06:37:44;;;;;;;3.28;2.30;;;;;;;19.31;63.51;102669.50;5050528;28;20041;-59
2021/05/30 06:40:10;;;;;;;3.65;2.05;;;;;;;19.31;63.34;102673.00;5063490;28;20033;-59
2021/05/30 06:42:36;;;;;;;3.00;2.10;;;;;;;19.31;63.35;102664.19;5061182;28;20029;-60
2021/05/30 06:45:01;;;;;;;6.10;2.50;;;;;;;19.31;63.07;102664.19;5065102;28;20067;-61
2021/05/30 06:47:27;;;;;;;17.30;2.80;;;;;;;19.32;63.56;102669.34;5065744;28;20516;-62
2021/05/30 06:49:52;;;;;;;3.42;1.98;;;;;;;19.33;63.64;102664.88;5064808;28;20111;-61
2021/05/30 06:52:18;;;;;;;6.55;2.40;;;;;;;19.32;63.55;102669.34;5061114;28;20049;-59
2021/05/30 06:54:43;;;;;;;4.22;2.30;;;;;;;19.33;63.62;102664.88;5060221;28;20372;-62
2021/05/30 06:57:09;;;;;;;3.97;2.30;;;;;;;19.34;64.01;102659.38;5046082;28;20029;-59
2021/05/30 06:59:35;;;;;;;4.63;1.92;;;;;;;19.34;64.04;102667.38;5050950;28;20132;-60
2021/05/30 07:02:00;;;;;;;6.68;1.90;;;;;;;19.36;64.12;102664.56;5063483;28;20020;-59
2021/05/30 07:04:27;;;;;;;3.50;1.90;;;;;;;19.35;64.43;102663.72;5063297;28;20044;-59
2021/05/30 07:06:54;;;;;;;5.63;1.77;;;;;;;19.36;64.76;102665.41;5068352;28;20064;-58
2021/05/30 07:09:20;;;;;;;5.97;2.20;;;;;;;19.37;65.26;102666.22;5069072;28;20116;-60
2021/05/30 07:11:45;;;;;;;6.22;1.92;;;;;;;19.39;65.67;102674.91;5061530;28;20124;-58
2021/05/30 07:14:11;;;;;;;7.15;2.10;;;;;;;19.39;65.56;102669.56;5054531;28;20432;-58
2021/05/30 07:16:36;;;;;;;5.45;2.22;;;;;;;19.39;65.61;102674.91;5030653;28;20148;-58
2021/05/30 07:19:02;;;;;;;8.43;2.35;;;;;;;19.40;65.84;102668.59;5055977;28;20091;-58
2021/05/30 07:21:27;;;;;;;4.95;2.15;;;;;;;19.40;66.07;102672.09;5051762;28;20095;-58
2021/05/30 07:23:53;;;;;;;3.83;2.15;;;;;;;19.40;65.86;102668.59;5067203;28;20029;-58
2021/05/30 07:26:18;;;;;;;5.78;2.42;;;;;;;19.41;65.88;102667.63;5064392;28;20055;-58
2021/05/30 07:28:46;;;;;;;5.60;2.45;;;;;;;19.41;65.94;102672.94;5059408;28;20139;-60
2021/05/30 07:31:13;;;;;;;7.35;2.65;;;;;;;19.42;66.22;102671.97;5065952;28;20052;-58
2021/05/30 07:33:39;;;;;;;5.50;3.30;;;;;;;19.42;66.34;102662.16;5060317;28;20051;-58
2021/05/30 07:36:05;;;;;;;4.80;2.50;;;;;;;19.44;66.08;102670.81;5068446;28;20430;-58
2021/05/30 07:38:34;;;;;;;6.25;3.17;;;;;;;19.44;66.03;102672.66;5045534;28;20421;-58
2021/05/30 07:41:00;;;;;;;4.97;3.22;;;;;;;19.45;66.54;102669.00;5058893;28;20057;-58
2021/05/30 07:43:26;;;;;;;6.97;3.83;;;;;;;19.47;66.32;102666.19;5060357;28;20098;-58
2021/05/30 07:45:52;;;;;;;6.45;3.20;;;;;;;19.47;66.44;102676.81;5055982;28;20166;-58
2021/05/30 07:48:17;;;;;;;7.13;3.50;;;;;;;19.47;66.85;102674.16;5059232;28;20472;-59
2021/05/30 07:50:45;;;;;;;6.05;3.88;;;;;;;19.47;66.96;102677.66;5066907;28;20112;-58
2021/05/30 07:53:12;;;;;;;8.43;3.20;;;;;;;19.49;67.14;102674.84;5064626;28;20079;-59
2021/05/30 07:55:37;;;;;;;6.80;4.03;;;;;;;19.49;67.22;102683.66;5065012;28;20040;-58
2021/05/30 07:58:03;;;;;;;7.13;3.85;;;;;;;19.49;66.73;102678.34;5063795;28;20024;-57
2021/05/30 08:00:29;;;;;;;7.75;4.15;;;;;;;19.48;66.64;102682.00;5064539;28;20048;-58
2021/05/30 08:02:54;;;;;;;6.88;3.28;;;;;;;19.48;66.67;102673.16;5065730;28;20504;-59
2021/05/30 08:05:21;;;;;;;7.32;3.85;;;;;;;19.49;66.65;102685.50;5058982;28;20049;-58
2021/05/30 08:07:48;;;;;;;8.65;3.75;;;;;;;19.49;66.48;102681.00;5065043;28;20024;-58
2021/05/30 08:10:14;;;;;;;7.72;3.92;;;;;;;19.50;66.37;102684.50;5054841;28;20037;-61
2021/05/30 08:12:40;;;;;;;6.57;4.05;;;;;;;19.49;65.84;102682.81;5058214;28;20094;-60
2021/05/30 08:15:07;;;;;;;9.05;3.75;;;;;;;19.48;65.68;102676.66;5057998;28;20470;-61
2021/05/30 08:17:34;;;;;;;8.60;3.90;;;;;;;19.47;65.43;102677.66;5054538;28;20102;-60
2021/05/30 08:19:59;;;;;;;6.47;3.83;;;;;;;19.46;65.32;102676.00;5062665;28;20040;-59
2021/05/30 08:22:25;;;;;;;8.70;3.72;;;;;;;19.45;65.28;102675.16;5063055;28;20048;-58
2021/05/30 08:24:50;;;;;;;8.48;4.18;;;;;;;19.47;65.50;102679.47;5065925;28;20033;-58
2021/05/30 08:27:18;;;;;;;10.85;4.45;;;;;;;19.46;65.07;102676.00;5030414;28;20483;-59
2021/05/30 08:29:43;;;;;;;9.13;4.05;;;;;;;19.47;65.31;102675.00;5066343;28;20048;-62
2021/05/30 08:32:10;;;;;;;10.55;3.75;;;;;;;19.47;65.29;102679.47;5066278;28;20467;-58
2021/05/30 08:34:37;;;;;;;8.35;4.25;;;;;;;19.48;64.96;102678.50;5065624;28;20411;-59
2021/05/30 08:37:04;;;;;;;9.40;4.35;;;;;;;19.47;64.91;102677.66;5067253;28;20035;-59
2021/05/30 08:39:29;;;;;;;9.77;4.22;;;;;;;19.48;64.89;102673.16;5065514;28;20492;-59
2021/05/30 08:41:56;;;;;;;8.75;4.25;;;;;;;19.47;64.61;102672.34;5053098;28;20045;-59
2021/05/30 08:44:21;;;;;;;9.27;4.60;;;;;;;19.47;64.65;102667.00;5055505;28;20174;-59
2021/05/30 08:46:47;;;;;;;7.25;4.20;;;;;;;19.47;64.58;102667.00;5062949;28;20547;-60
2021/05/30 08:49:12;;;;;;;8.63;4.70;;;;;;;19.47;64.74;102667.00;5053722;28;20036;-59
2021/05/30 08:51:40;;;;;;;12.27;4.85;;;;;;;19.47;64.28;102669.66;5056237;28;20182;-59
2021/05/30 08:54:14;;;;;;;10.52;4.95;;;;;;;19.46;64.30;102673.31;5065194;28;20033;-59
2021/05/30 08:56:42;;;;;;;11.23;4.55;;;;;;;19.47;64.40;102668.84;5061960;28;20532;-60
2021/05/30 08:59:18;;;;;;;10.80;4.72;;;;;;;19.44;64.41;102673.47;5059435;28;20107;-60
2021/05/30 09:01:45;;;;;;;9.85;4.82;;;;;;;19.45;64.34;102669.00;5066022;28;20064;-59
2021/05/30 09:04:11;;;;;;;9.40;4.80;;;;;;;19.45;63.92;102663.66;5061246;28;20049;-59
2021/05/30 09:06:39;;;;;;;16.13;6.10;;;;;;;19.44;64.37;102662.84;5059521;28;20047;-61
2021/05/30 09:09:07;;;;;;;10.50;5.10;;;;;;;19.44;64.01;102664.66;5054169;28;20031;-60
2021/05/30 09:11:52;;;;;;;13.63;5.65;;;;;;;19.41;64.67;102665.81;5066421;28;20039;-59
2021/05/30 09:14:25;;;;;;;9.40;5.40;;;;;;;19.43;64.12;102668.31;5064274;28;20386;-61
2021/05/30 09:17:02;;;;;;;11.13;5.28;;;;;;;19.39;63.87;102665.09;5060092;28;20027;-59
2021/05/30 09:19:44;;;;;;;8.95;5.40;;;;;;;19.38;63.99;102662.56;5059599;28;20033;-58
2021/05/30 09:22:38;;;;;;;10.30;4.97;;;;;;;19.39;63.64;102661.59;5055356;28;20071;-59
2021/05/30 09:25:03;;;;;;;8.10;5.00;;;;;;;19.39;63.87;102666.91;5078007;28;20844;-60
2021/05/30 09:27:30;;;;;;;8.82;4.95;;;;;;;19.37;63.41;102661.75;5063167;28;20025;-58
2021/05/30 09:30:17;;;;;;;9.98;5.28;;;;;;;19.35;63.77;102665.53;5059369;28;20480;-59
2021/05/30 09:32:55;;;;;;;8.38;4.63;;;;;;;19.37;63.53;102666.22;5054585;28;20029;-58
2021/05/30 09:35:23;;;;;;;8.15;4.63;;;;;;;19.38;63.78;102662.56;5062301;28;20040;-59
2021/05/30 09:38:04;;;;;;;8.63;5.22;;;;;;;19.35;63.48;102658.41;5057868;28;20036;-60
2021/05/30 09:40:39;;;;;;;11.05;4.78;;;;;;;19.38;63.37;102657.25;5063612;28;20464;-58
2021/05/30 09:43:10;;;;;;;7.07;4.30;;;;;;;19.38;63.83;102658.09;5066555;28;20055;-59
2021/05/30 09:45:37;;;;;;;6.78;4.50;;;;;;;19.39;63.55;102656.28;5065771;28;20033;-59
2021/05/30 09:48:13;;;;;;;7.40;4.13;;;;;;;19.40;63.75;102649.97;5071784;28;20036;-59
2021/05/30 09:50:38;;;;;;;8.18;4.57;;;;;;;19.40;63.47;102652.63;5060137;28;20118;-59
2021/05/30 09:53:06;;;;;;;6.50;4.13;;;;;;;19.39;63.61;102653.59;5071012;28;20467;-60
2021/05/30 09:55:32;;;;;;;7.82;4.47;;;;;;;19.41;63.25;102654.31;5056264;28;20041;-59
2021/05/30 09:58:09;;;;;;;5.15;4.10;;;;;;;19.40;63.24;102647.28;5052677;28;20048;-59
2021/05/30 10:00:34;;;;;;;6.05;3.80;;;;;;;19.42;63.55;102650.66;5059120;28;20041;-58
2021/05/30 10:03:00;;;;;;;7.03;3.97;;;;;;;19.42;63.47;102653.34;5058660;28;20044;-60
2021/05/30 10:05:26;;;;;;;7.18;4.20;;;;;;;19.42;63.02;102650.66;5051166;28;20040;-59
2021/05/30 10:07:54;;;;;;;5.45;4.47;;;;;;;19.41;63.14;102649.84;5064484;28;20025;-58
2021/05/30 10:10:19;;;;;;;7.57;5.05;;;;;;;19.40;62.77;102652.63;5066889;28;20044;-59
2021/05/30 10:12:45;;;;;;;8.15;5.22;;;;;;;19.40;62.75;102660.59;5068283;28;20364;-59
2021/05/30 10:15:11;;;;;;;7.68;5.20;;;;;;;19.39;62.74;102651.78;5070350;28;20089;-59
2021/05/30 10:17:38;;;;;;;9.38;4.65;;;;;;;19.39;62.72;102650.94;5056029;28;20037;-59
2021/05/30 10:20:11;;;;;;;6.82;5.03;;;;;;;19.39;62.88;102642.97;5059602;28;20063;-59
2021/05/30 10:22:38;;;;;;;6.57;4.50;;;;;;;19.39;62.71;102648.28;5061989;28;20056;-59
2021/05/30 10:25:04;;;;;;;6.47;4.63;;;;;;;19.39;62.67;102642.97;5069127;28;20135;-59
2021/05/30 10:27:30;;;;;;;7.63;5.00;;;;;;;19.39;62.69;102645.63;5052927;28;20496;-59
2021/05/30 10:30:08;;;;;;;6.28;4.90;;;;;;;19.35;62.89;102642.44;5064732;28;20109;-59
2021/05/30 10:32:42;;;;;;;5.65;4.30;;;;;;;19.36;63.15;102640.59;5063005;28;20074;-59
2021/05/30 10:35:21;;;;;;;5.10;4.22;;;;;;;19.37;62.67;102642.28;5068536;28;20136;-58
2021/05/30 10:37:48;;;;;;;5.40;4.22;;;;;;;19.37;63.03;102634.28;5070524;28;20089;-59
2021/05/30 10:40:22;;;;;;;6.43;5.00;;;;;;;19.36;62.80;102635.28;5056657;28;20511;-59
2021/05/30 10:43:10;;;;;;;8.15;5.13;;;;;;;19.35;62.90;102636.28;5062769;28;20028;-60
2021/05/30 10:45:41;;;;;;;6.22;4.60;;;;;;;19.36;62.64;102630.78;5059896;28;20021;-58
2021/05/30 10:48:07;;;;;;;6.50;4.75;;;;;;;19.36;62.79;102628.13;5069433;28;20047;-62
2021/05/30 10:50:48;;;;;;;6.05;5.22;;;;;;;19.33;62.83;102623.13;5068193;28;20024;-58
2021/05/30 10:53:34;;;;;;;6.88;4.68;;;;;;;19.31;62.66;102619.78;5060844;28;20040;-59
2021/05/30 10:56:24;;;;;;;5.40;4.60;;;;;;;19.32;62.95;102610.81;5062057;28;20020;-60
2021/05/30 10:59:11;;;;;;;5.30;4.38;;;;;;;19.33;62.82;102625.78;5058115;28;20028;-58
2021/05/30 11:01:39;;;;;;;6.03;4.70;;;;;;;19.35;62.34;102615.81;5060718;28;20039;-58
2021/05/30 11:04:23;;;;;;;5.90;4.50;;;;;;;19.33;62.69;102615.13;5066982;28;20033;-59
2021/05/30 11:06:54;;;;;;;6.50;5.38;;;;;;;19.35;62.27;102615.81;5063379;28;20037;-59
2021/05/30 11:09:20;;;;;;;7.05;4.72;;;;;;;19.35;62.36;102613.16;5067281;28;20032;-58
2021/05/30 11:12:06;;;;;;;7.20;4.30;;;;;;;19.37;62.52;102607.69;5069680;28;20036;-62
2021/05/30 11:14:32;;;;;;;7.63;4.70;;;;;;;19.35;62.25;102599.84;5061995;28;20343;-58
2021/05/30 11:16:57;;;;;;;6.63;4.78;;;;;;;19.36;62.34;102600.69;5050571;28;20037;-59
2021/05/30 11:19:23;;;;;;;7.50;4.65;;;;;;;19.36;62.37;102606.00;5066735;28;20032;-59
2021/05/30 11:21:50;;;;;;;6.43;4.68;;;;;;;19.37;61.87;102602.34;5063450;28;20492;-58